createdAt,value
2019-04-14T00:00:01.596Z,3.4
2019-04-14T00:10:02.846Z,3.0
2019-04-14T00:15:02.885Z,3.2
2019-04-14T00:20:01.349Z,3.3
2019-04-14T00:25:02.763Z,3.2
2019-04-14T00:30:01.522Z,3.0
2019-04-14T00:35:02.125Z,3.0
2019-04-14T00:40:02.364Z,2.6
2019-04-14T00:45:02.954Z,2.5
2019-04-14T00:50:02.037Z,2.5
2019-04-14T00:55:01.513Z,2.4
2019-04-14T01:00:02.159Z,2.5
2019-04-14T01:05:02.874Z,2.9
2019-04-14T01:10:02.136Z,3.0
2019-04-14T01:15:02.942Z,2.9
2019-04-14T01:20:01.804Z,3.0
2019-04-14T01:30:02.967Z,2.9
2019-04-14T01:35:01.580Z,3.0
2019-04-14T01:40:01.389Z,3.2
2019-04-14T01:45:01.788Z,3.2
2019-04-14T01:50:02.154Z,3.3
2019-04-14T01:55:02.538Z,3.3
2019-04-14T02:00:01.484Z,3.4
2019-04-14T02:05:02.180Z,3.2
2019-04-14T02:10:02.437Z,3.1
2019-04-14T02:15:03.150Z,3.3
2019-04-14T02:20:01.668Z,3.2
2019-04-14T02:25:01.968Z,3.1
2019-04-14T02:30:10.039Z,3.2
2019-04-14T04:10:01.084Z,3.2
2019-04-14T04:15:02.326Z,3.1
2019-04-14T04:20:00.975Z,3.1
2019-04-14T04:25:01.162Z,2.8
2019-04-14T04:30:02.186Z,2.9
2019-04-14T04:35:02.450Z,2.8
2019-04-14T04:40:01.088Z,2.9
2019-04-14T04:45:02.279Z,2.8
2019-04-14T04:50:02.590Z,2.9
2019-04-14T04:55:02.247Z,2.8
2019-04-14T05:00:00.983Z,2.9
2019-04-14T05:05:01.659Z,2.9
2019-04-14T05:20:01.205Z,2.5
2019-04-14T05:25:03.864Z,2.7
2019-04-14T05:30:00.746Z,2.3
2019-04-14T05:35:01.230Z,2.3
2019-04-14T05:40:01.921Z,2.4
2019-04-14T05:45:00.807Z,2.5
2019-04-14T05:50:01.254Z,2.5
2019-04-14T05:55:00.808Z,2.6
2019-04-14T06:00:02.154Z,2.7
2019-04-14T06:05:01.920Z,2.6
2019-04-14T06:10:04.619Z,2.7
2019-04-14T06:15:01.726Z,2.6
2019-04-14T06:20:00.738Z,2.5
2019-04-14T06:25:01.086Z,2.4
2019-04-14T06:30:00.740Z,2.4
2019-04-14T06:35:00.803Z,2.3
2019-04-14T06:45:00.905Z,2.2
2019-04-14T06:50:00.761Z,2.2
2019-04-14T06:55:04.102Z,2.1
2019-04-14T07:00:01.284Z,2.2
2019-04-14T07:05:00.855Z,2.3
2019-04-14T07:10:01.304Z,2.4
2019-04-14T07:15:02.079Z,2.6
2019-04-14T07:20:02.937Z,2.6
2019-04-14T07:30:00.910Z,2.3
2019-04-14T07:35:01.487Z,2.5
2019-04-14T07:40:00.783Z,2.5
2019-04-14T07:45:01.004Z,2.8
2019-04-14T07:50:00.764Z,2.8
2019-04-14T07:55:00.929Z,3.1
2019-04-14T08:00:00.941Z,3.1
2019-04-14T08:05:00.851Z,3.2
2019-04-14T08:10:00.768Z,3.0
2019-04-14T08:15:00.913Z,3.2
2019-04-14T08:20:00.789Z,3.5
2019-04-14T08:25:00.878Z,3.6
2019-04-14T08:30:02.113Z,3.6
2019-04-14T08:35:00.851Z,3.8
2019-04-14T08:40:00.823Z,3.7
2019-04-14T08:45:00.915Z,3.8
2019-04-14T08:50:00.793Z,4.0
2019-04-14T08:55:00.933Z,3.7
2019-04-14T09:00:02.170Z,3.4
2019-04-14T09:05:00.860Z,3.6
2019-04-14T09:10:00.799Z,3.6
2019-04-14T09:15:00.784Z,3.6
2019-04-14T09:20:00.798Z,3.8
2019-04-14T09:25:00.853Z,4.4
2019-04-14T09:30:00.860Z,4.3
2019-04-14T09:35:00.924Z,4.5
2019-04-14T09:40:00.929Z,4.6
2019-04-14T09:45:00.936Z,5.1
2019-04-14T09:55:00.845Z,5.4
2019-04-14T10:00:00.858Z,5.4
2019-04-14T10:05:00.944Z,5.2
2019-04-14T10:10:00.962Z,5.0
2019-04-14T10:15:00.897Z,5.2
2019-04-14T10:20:00.882Z,5.3
2019-04-14T10:30:00.874Z,5.4
2019-04-14T10:35:00.914Z,5.4
2019-04-14T10:40:00.832Z,5.3
2019-04-14T10:45:00.991Z,5.4
2019-04-14T10:50:00.862Z,5.2
2019-04-14T10:55:00.941Z,5.1
2019-04-14T11:00:01.277Z,5.2
2019-04-14T11:05:02.181Z,5.6
2019-04-14T11:10:00.803Z,5.6
2019-04-14T11:15:01.005Z,5.7
2019-04-14T11:20:01.577Z,5.9
2019-04-14T11:25:00.944Z,6.1
2019-04-14T11:30:00.824Z,6.2
2019-04-14T11:35:00.883Z,6.1
2019-04-14T11:40:00.828Z,6.1
2019-04-14T11:45:00.942Z,6.4
2019-04-14T11:50:00.898Z,6.4
2019-04-14T11:55:01.059Z,6.4
2019-04-14T12:00:00.917Z,6.6
2019-04-14T12:05:00.891Z,6.5
2019-04-14T12:10:00.841Z,6.3
2019-04-14T12:15:00.914Z,6.5
2019-04-14T12:20:01.214Z,6.2
2019-04-14T12:25:00.893Z,6.3
2019-04-14T12:30:06.881Z,6.0
2019-04-14T12:35:00.897Z,6.3
2019-04-14T12:40:00.870Z,5.8
2019-04-14T12:45:00.896Z,5.6
2019-04-14T12:50:00.896Z,5.2
2019-04-14T12:55:00.897Z,6.0
2019-04-14T13:00:00.916Z,5.7
2019-04-14T13:05:00.967Z,5.7
2019-04-14T13:10:00.875Z,5.6
2019-04-14T13:15:03.222Z,5.6
2019-04-14T13:20:00.885Z,5.5
2019-04-14T13:25:00.881Z,5.5
2019-04-14T13:30:00.889Z,5.4
2019-04-14T13:35:00.910Z,5.5
2019-04-14T13:40:00.916Z,5.8
2019-04-14T13:45:01.118Z,6.2
2019-04-14T13:50:00.869Z,6.0
2019-04-14T14:00:00.961Z,6.0
2019-04-14T14:05:00.906Z,5.5
2019-04-14T14:10:00.924Z,5.2
2019-04-14T14:15:00.937Z,5.3
2019-04-14T14:20:00.867Z,4.8
2019-04-14T14:25:00.936Z,4.7
2019-04-14T14:30:00.859Z,4.7
2019-04-14T14:35:02.068Z,4.8
2019-04-14T14:40:01.969Z,4.7
2019-04-14T14:45:00.970Z,4.7
2019-04-14T14:50:00.974Z,4.5
2019-04-14T14:55:01.008Z,4.5
2019-04-14T15:00:05.922Z,4.2
2019-04-14T15:05:00.973Z,4.2
2019-04-14T15:10:00.966Z,4.7
2019-04-14T15:15:01.024Z,5.2
2019-04-14T15:20:00.950Z,5.2
2019-04-14T15:25:00.965Z,5.2
2019-04-14T15:30:00.937Z,5.0
2019-04-14T15:35:02.107Z,4.8
2019-04-14T15:40:00.967Z,4.6
2019-04-14T15:45:00.993Z,4.6
2019-04-14T15:50:01.954Z,4.5
2019-04-14T15:55:01.474Z,4.5
2019-04-14T16:00:00.943Z,4.2
2019-04-14T16:05:01.003Z,4.0
2019-04-14T16:15:02.630Z,3.8
2019-04-14T16:20:00.967Z,4.0
2019-04-14T16:25:01.108Z,3.9
2019-04-14T16:30:00.945Z,4.2
2019-04-14T16:35:01.082Z,4.1
2019-04-14T16:40:00.926Z,4.0
2019-04-14T16:45:01.084Z,4.1
2019-04-14T16:50:00.994Z,4.4
2019-04-14T16:55:02.432Z,3.8
2019-04-14T17:00:01.033Z,3.7
2019-04-14T17:05:00.987Z,3.7
2019-04-14T17:10:01.022Z,3.7
2019-04-14T17:15:01.174Z,3.6
2019-04-14T17:20:06.017Z,3.7
2019-04-14T17:25:01.102Z,3.8
2019-04-14T17:30:00.959Z,4.2
2019-04-14T17:35:01.464Z,4.2
2019-04-14T17:40:01.056Z,4.0
2019-04-14T17:45:01.143Z,4.0
2019-04-14T17:50:00.943Z,4.1
2019-04-14T18:00:01.072Z,3.9
2019-04-14T18:05:02.181Z,3.9
2019-04-14T18:10:01.004Z,3.7
2019-04-14T18:15:00.984Z,3.5
2019-04-14T18:25:01.015Z,3.4
2019-04-14T18:30:00.993Z,3.3
2019-04-14T18:35:00.999Z,3.1
2019-04-14T18:40:00.972Z,3.3
2019-04-14T18:45:00.985Z,2.9
2019-04-14T18:50:02.039Z,2.5
2019-04-14T19:00:02.446Z,2.5
2019-04-14T19:05:00.973Z,2.2
2019-04-14T19:10:00.975Z,2.3
2019-04-14T19:15:01.095Z,2.6
2019-04-14T19:20:02.876Z,2.8
2019-04-14T19:25:09.019Z,2.7
2019-04-14T19:30:01.193Z,2.7
2019-04-14T19:35:01.018Z,2.5
2019-04-14T19:40:01.082Z,2.4
2019-04-14T19:45:01.073Z,2.3
2019-04-14T19:50:01.053Z,2.6
2019-04-14T19:55:01.201Z,2.8
2019-04-14T20:00:01.109Z,3.1
2019-04-14T20:05:01.027Z,3.0
2019-04-14T20:10:00.981Z,3.0
2019-04-14T20:15:02.191Z,2.9
2019-04-14T20:20:00.994Z,2.6
2019-04-14T20:30:01.160Z,3.1
2019-04-14T20:35:02.754Z,3.0
2019-04-14T20:40:01.043Z,3.0
2019-04-14T20:45:01.136Z,2.8
2019-04-14T20:50:01.024Z,2.6
2019-04-14T20:55:01.164Z,2.5
2019-04-14T21:00:01.131Z,2.8
2019-04-14T21:05:01.034Z,3.0
2019-04-14T21:15:01.161Z,3.3
2019-04-14T21:20:03.076Z,3.1
2019-04-14T21:25:01.416Z,3.0
2019-04-14T21:30:01.017Z,2.6
2019-04-14T21:35:01.105Z,2.6
2019-04-14T21:40:01.054Z,2.4
2019-04-14T21:45:01.138Z,2.6
2019-04-14T21:50:01.110Z,2.6
2019-04-14T21:55:02.333Z,3.0
2019-04-14T22:00:01.119Z,2.9
2019-04-14T22:05:01.203Z,3.1
2019-04-14T22:10:01.134Z,3.0
2019-04-14T22:15:06.197Z,2.9
2019-04-14T22:20:01.101Z,2.8
2019-04-14T22:25:01.172Z,3.1
2019-04-14T22:30:01.096Z,3.1
2019-04-14T22:35:01.227Z,3.0
2019-04-14T22:40:01.133Z,2.8
2019-04-14T22:45:01.214Z,2.7
2019-04-14T22:50:01.817Z,2.6
2019-04-14T23:00:01.068Z,2.6
2019-04-14T23:05:01.281Z,2.6
2019-04-14T23:10:01.025Z,2.6
2019-04-14T23:15:01.246Z,2.5
2019-04-14T23:20:01.079Z,2.5
2019-04-14T23:30:01.248Z,2.3
2019-04-14T23:35:01.273Z,2.3
2019-04-14T23:40:01.071Z,2.4
2019-04-14T23:45:02.513Z,2.3
2019-04-14T23:50:01.168Z,2.3
2019-04-14T23:55:06.162Z,2.3
